createdAt,value
2023-02-27T00:01:47.112Z,3.97
2023-02-27T00:04:15.798Z,3.98
2023-02-27T00:06:43.993Z,3.99
2023-02-27T00:09:12.686Z,3.99
2023-02-27T00:11:40.900Z,3.97
2023-02-27T00:14:09.706Z,3.96
2023-02-27T00:16:37.993Z,3.94
2023-02-27T00:19:10.047Z,3.91
2023-02-27T00:21:38.260Z,3.90
2023-02-27T00:24:11.107Z,3.90
2023-02-27T00:26:39.484Z,3.90
2023-02-27T00:29:08.173Z,3.88
2023-02-27T00:31:36.583Z,3.88
2023-02-27T00:34:04.852Z,3.89
2023-02-27T00:36:33.211Z,3.89
2023-02-27T00:39:01.784Z,3.88
2023-02-27T00:41:30.071Z,3.87
2023-02-27T00:44:01.734Z,3.88
2023-02-27T00:46:30.448Z,3.86
2023-02-27T00:49:00.663Z,3.86
2023-02-27T00:51:29.237Z,3.85
2023-02-27T00:53:57.703Z,3.84
2023-02-27T00:56:25.971Z,3.83
2023-02-27T00:58:54.290Z,3.82
2023-02-27T01:01:23.688Z,3.82
2023-02-27T01:03:52.445Z,3.80
2023-02-27T01:06:21.235Z,3.79
2023-02-27T01:08:49.408Z,3.79
2023-02-27T01:11:20.416Z,3.77
2023-02-27T01:13:48.937Z,3.73
2023-02-27T01:16:18.359Z,3.68
2023-02-27T01:18:48.809Z,3.65
2023-02-27T01:21:17.965Z,3.62
2023-02-27T01:23:51.061Z,3.61
2023-02-27T01:26:20.831Z,3.60
2023-02-27T01:28:49.052Z,3.61
2023-02-27T01:31:17.216Z,3.64
2023-02-27T01:33:46.130Z,3.66
2023-02-27T01:36:14.794Z,3.67
2023-02-27T01:38:44.021Z,3.66
2023-02-27T01:41:13.315Z,3.65
2023-02-27T01:44:01.960Z,3.64
2023-02-27T01:46:32.585Z,3.62
2023-02-27T01:49:04.537Z,3.62
2023-02-27T01:51:40.349Z,3.62
2023-02-27T01:54:09.954Z,3.62
2023-02-27T01:56:38.063Z,3.62
2023-02-27T01:59:07.824Z,3.61
2023-02-27T02:01:36.643Z,3.60
2023-02-27T02:04:26.592Z,3.57
2023-02-27T02:07:01.542Z,3.55
2023-02-27T02:09:29.879Z,3.54
2023-02-27T02:11:58.171Z,3.54
2023-02-27T02:14:30.023Z,3.55
2023-02-27T02:17:31.268Z,3.56
2023-02-27T02:20:37.431Z,3.57
2023-02-27T02:23:22.954Z,3.56
2023-02-27T02:26:33.153Z,3.55
2023-02-27T02:29:15.005Z,3.57
2023-02-27T02:32:02.484Z,3.58
2023-02-27T02:34:41.224Z,3.58
2023-02-27T02:37:37.458Z,3.59
2023-02-27T02:40:07.147Z,3.60
2023-02-27T02:42:50.565Z,3.60
2023-02-27T02:45:53.323Z,3.61
2023-02-27T02:48:27.216Z,3.63
2023-02-27T02:51:05.020Z,3.63
2023-02-27T02:53:52.743Z,3.64
2023-02-27T02:56:50.168Z,3.65
2023-02-27T02:59:32.996Z,3.66
2023-02-27T03:02:10.442Z,3.69
2023-02-27T03:04:49.833Z,3.70
2023-02-27T03:07:31.783Z,3.68
2023-02-27T03:10:08.944Z,3.64
2023-02-27T03:12:40.285Z,3.61
2023-02-27T03:15:20.245Z,3.58
2023-02-27T03:18:01.594Z,3.58
2023-02-27T03:20:40.321Z,3.58
2023-02-27T03:23:11.683Z,3.58
2023-02-27T03:25:46.493Z,3.59
2023-02-27T03:28:21.285Z,3.58
2023-02-27T03:31:10.015Z,3.58
2023-02-27T03:33:45.982Z,3.58
2023-02-27T03:36:27.834Z,3.59
2023-02-27T03:39:46.632Z,3.59
2023-02-27T03:42:36.688Z,3.55
2023-02-27T03:45:37.640Z,3.51
2023-02-27T03:48:07.022Z,3.44
2023-02-27T03:50:36.318Z,3.40
2023-02-27T03:53:06.731Z,3.35
2023-02-27T03:55:36.626Z,3.29
2023-02-27T03:58:04.695Z,3.25
2023-02-27T04:00:33.018Z,3.22
2023-02-27T04:03:03.095Z,3.18
2023-02-27T04:05:33.791Z,3.13
2023-02-27T04:08:09.382Z,3.10
2023-02-27T04:11:00.213Z,3.10
2023-02-27T04:13:40.278Z,3.06
2023-02-27T04:16:17.916Z,3.03
2023-02-27T04:19:05.048Z,3.00
2023-02-27T04:21:52.133Z,2.99
2023-02-27T04:24:39.437Z,3.01
2023-02-27T04:27:36.309Z,3.00
2023-02-27T04:30:28.609Z,2.96
2023-02-27T04:33:28.561Z,2.91
2023-02-27T04:36:27.953Z,2.86
2023-02-27T04:39:05.141Z,2.81
2023-02-27T04:41:39.808Z,2.79
2023-02-27T04:44:08.454Z,2.80
2023-02-27T04:46:37.595Z,2.82
2023-02-27T04:49:09.010Z,2.84
2023-02-27T04:51:40.609Z,2.87
2023-02-27T04:54:12.223Z,2.88
2023-02-27T04:56:44.773Z,2.88
2023-02-27T04:59:18.520Z,2.90
2023-02-27T05:02:09.092Z,2.91
2023-02-27T05:04:38.834Z,2.93
2023-02-27T05:07:09.701Z,2.93
2023-02-27T05:09:53.812Z,2.95
2023-02-27T05:12:52.908Z,2.96
2023-02-27T05:15:23.241Z,2.93
2023-02-27T05:17:57.695Z,2.93
2023-02-27T05:20:27.865Z,2.94
2023-02-27T05:23:14.676Z,2.93
2023-02-27T05:26:02.713Z,2.91
2023-02-27T05:28:34.877Z,2.85
2023-02-27T05:31:14.273Z,2.79
2023-02-27T05:34:02.590Z,2.74
2023-02-27T05:36:37.074Z,2.69
2023-02-27T05:39:07.062Z,2.67
2023-02-27T05:41:51.098Z,2.66
2023-02-27T05:44:23.848Z,2.67
2023-02-27T05:47:13.119Z,2.68
2023-02-27T05:49:47.877Z,2.68
2023-02-27T05:52:17.945Z,2.68
2023-02-27T05:54:53.996Z,2.69
2023-02-27T05:57:25.798Z,2.71
2023-02-27T06:00:17.911Z,2.71
2023-02-27T06:02:46.333Z,2.71
2023-02-27T06:05:15.702Z,2.69
2023-02-27T06:07:44.376Z,2.70
2023-02-27T06:10:16.954Z,2.73
2023-02-27T06:12:46.872Z,2.76
2023-02-27T06:15:15.051Z,2.77
2023-02-27T06:17:43.425Z,2.81
2023-02-27T06:20:12.521Z,2.83
2023-02-27T06:22:40.704Z,2.86
2023-02-27T06:25:10.111Z,2.89
2023-02-27T06:27:38.781Z,2.93
2023-02-27T06:30:08.594Z,2.95
2023-02-27T06:32:36.739Z,2.97
2023-02-27T06:35:06.970Z,3.00
2023-02-27T06:37:37.639Z,3.04
2023-02-27T06:40:11.593Z,3.09
2023-02-27T06:42:41.648Z,3.13
2023-02-27T06:45:10.696Z,3.18
2023-02-27T06:47:41.791Z,3.21
2023-02-27T06:50:11.600Z,3.24
2023-02-27T06:52:42.159Z,3.26
2023-02-27T06:55:11.536Z,3.29
2023-02-27T06:57:39.614Z,3.30
2023-02-27T07:00:10.225Z,3.33
2023-02-27T07:02:39.672Z,3.38
2023-02-27T07:05:09.044Z,3.43
2023-02-27T07:07:38.760Z,3.48
2023-02-27T07:10:13.241Z,3.53
2023-02-27T07:12:41.763Z,3.59
2023-02-27T07:15:11.674Z,3.61
2023-02-27T07:17:41.156Z,3.64
2023-02-27T07:20:13.200Z,3.66
2023-02-27T07:22:42.852Z,3.66
2023-02-27T07:25:11.135Z,3.65
2023-02-27T07:27:39.635Z,3.64
2023-02-27T07:30:09.120Z,3.59
2023-02-27T07:32:39.036Z,3.57
2023-02-27T07:35:08.322Z,3.56
2023-02-27T07:45:35.652Z,3.59
2023-02-27T07:48:04.028Z,3.59
2023-02-27T07:50:32.200Z,3.56
2023-02-27T07:53:00.483Z,3.54
2023-02-27T07:55:28.966Z,3.54
2023-02-27T07:57:59.105Z,3.57
2023-02-27T08:00:28.917Z,3.59
2023-02-27T08:02:56.992Z,3.60
2023-02-27T08:05:25.171Z,3.61
2023-02-27T08:07:53.133Z,3.64
2023-02-27T08:10:21.515Z,3.62
2023-02-27T08:12:49.673Z,3.68
2023-02-27T08:15:17.911Z,3.76
2023-02-27T08:17:47.047Z,3.80
2023-02-27T08:20:15.252Z,3.81
2023-02-27T08:22:43.606Z,3.83
2023-02-27T08:25:12.797Z,3.86
2023-02-27T08:27:41.042Z,3.86
2023-02-27T08:30:10.581Z,3.85
2023-02-27T08:32:39.570Z,3.82
2023-02-27T08:35:09.280Z,3.81
2023-02-27T08:37:37.797Z,3.78
2023-02-27T08:40:07.445Z,3.74
2023-02-27T08:42:37.495Z,3.73
2023-02-27T08:45:09.374Z,3.72
2023-02-27T08:47:37.980Z,3.69
2023-02-27T08:50:06.944Z,3.68
2023-02-27T08:52:35.620Z,3.68
2023-02-27T08:55:04.286Z,3.71
2023-02-27T08:57:32.368Z,3.74
2023-02-27T09:00:00.629Z,3.77
2023-02-27T09:02:29.043Z,3.80
2023-02-27T09:04:57.468Z,3.87
2023-02-27T09:07:25.689Z,3.94
2023-02-27T09:09:54.285Z,3.99
2023-02-27T09:12:27.375Z,4.03
2023-02-27T09:14:55.441Z,4.05
2023-02-27T09:17:29.271Z,4.03
2023-02-27T09:19:58.332Z,4.02
2023-02-27T09:22:26.717Z,4.04
2023-02-27T09:24:54.995Z,4.06
2023-02-27T09:27:24.133Z,4.08
2023-02-27T09:29:56.598Z,4.07
2023-02-27T09:32:25.653Z,4.05
2023-02-27T09:34:53.916Z,4.04
2023-02-27T09:37:24.985Z,4.05
2023-02-27T09:39:53.586Z,4.01
2023-02-27T09:42:27.488Z,3.95
2023-02-27T09:45:04.094Z,3.92
2023-02-27T09:47:43.237Z,3.91
2023-02-27T09:50:32.814Z,3.91
2023-02-27T09:53:03.542Z,3.87
2023-02-27T09:55:35.059Z,3.82
2023-02-27T09:58:26.311Z,3.81
2023-02-27T10:00:57.523Z,3.80
2023-02-27T10:04:00.286Z,3.79
2023-02-27T10:06:44.367Z,3.78
2023-02-27T10:09:34.603Z,3.80
2023-02-27T10:12:10.197Z,3.83
2023-02-27T10:14:42.692Z,3.83
2023-02-27T10:17:25.808Z,3.85
2023-02-27T10:19:54.351Z,3.86
2023-02-27T10:22:26.830Z,3.89
2023-02-27T10:33:12.197Z,3.92
2023-02-27T10:35:41.499Z,3.88
2023-02-27T10:38:15.123Z,3.87
2023-02-27T10:40:42.133Z,3.84
2023-02-27T10:43:10.210Z,3.86
2023-02-27T10:45:38.876Z,3.88
2023-02-27T10:48:05.938Z,3.88
2023-02-27T10:50:35.314Z,3.88
2023-02-27T10:53:03.412Z,3.88
2023-02-27T10:55:32.545Z,3.90
2023-02-27T10:57:59.689Z,3.91
2023-02-27T11:00:47.465Z,3.93
2023-02-27T11:03:24.384Z,3.95
2023-02-27T11:05:58.993Z,3.97
2023-02-27T11:08:27.806Z,3.99
2023-02-27T11:11:11.228Z,4.00
2023-02-27T11:13:41.403Z,4.02
2023-02-27T11:16:21.774Z,4.04
2023-02-27T11:18:49.654Z,4.06
2023-02-27T11:21:28.641Z,4.05
2023-02-27T11:23:59.808Z,4.04
2023-02-27T11:26:27.041Z,4.04
2023-02-27T11:29:11.031Z,4.04
2023-02-27T11:31:38.256Z,4.03
2023-02-27T11:34:05.124Z,4.01
2023-02-27T11:36:44.852Z,3.98
2023-02-27T11:39:34.987Z,3.96
2023-02-27T11:42:11.760Z,3.94
2023-02-27T11:44:50.775Z,3.92
2023-02-27T11:47:24.321Z,3.92
2023-02-27T11:50:01.459Z,3.92
2023-02-27T11:52:50.199Z,3.91
2023-02-27T11:55:19.741Z,3.89
2023-02-27T11:57:49.844Z,3.87
2023-02-27T12:00:32.436Z,3.87
2023-02-27T12:03:26.404Z,3.84
2023-02-27T12:05:59.270Z,3.82
2023-02-27T12:08:46.729Z,3.82
2023-02-27T12:11:40.521Z,3.84
2023-02-27T12:14:22.447Z,3.84
2023-02-27T12:16:53.664Z,3.82
2023-02-27T12:19:21.835Z,3.82
2023-02-27T12:21:53.841Z,3.81
2023-02-27T12:24:43.763Z,3.81
2023-02-27T12:27:30.757Z,3.81
2023-02-27T12:30:05.321Z,3.81
2023-02-27T12:32:42.591Z,3.81
2023-02-27T12:35:29.353Z,3.81
2023-02-27T12:37:56.697Z,3.83
2023-02-27T12:40:31.269Z,3.84
2023-02-27T12:43:22.050Z,3.84
2023-02-27T12:45:56.872Z,3.83
2023-02-27T12:49:02.427Z,3.82
2023-02-27T12:51:42.335Z,3.81
2023-02-27T12:54:22.295Z,3.80
2023-02-27T12:57:04.842Z,3.81
2023-02-27T12:59:47.301Z,3.82
2023-02-27T13:02:58.924Z,3.84
2023-02-27T13:05:44.333Z,3.81
2023-02-27T13:08:39.186Z,3.78
2023-02-27T13:11:16.878Z,3.78
2023-02-27T13:13:47.531Z,3.78
2023-02-27T13:16:26.328Z,3.78
2023-02-27T13:19:19.399Z,3.77
2023-02-27T13:22:05.595Z,3.73
2023-02-27T13:24:33.808Z,3.70
2023-02-27T13:27:15.514Z,3.66
2023-02-27T13:29:46.944Z,3.64
2023-02-27T13:32:42.644Z,3.62
2023-02-27T13:35:27.350Z,3.59
2023-02-27T13:38:05.365Z,3.53
2023-02-27T13:40:34.392Z,3.47
2023-02-27T13:43:25.370Z,3.42
2023-02-27T13:45:57.570Z,3.38
2023-02-27T13:48:33.800Z,3.37
2023-02-27T13:51:00.671Z,3.35
2023-02-27T13:53:27.861Z,3.34
2023-02-27T13:56:18.223Z,3.33
2023-02-27T13:58:45.988Z,3.32
2023-02-27T14:01:26.849Z,3.32
2023-02-27T14:03:59.035Z,3.31
2023-02-27T14:06:25.813Z,3.30
2023-02-27T14:09:08.771Z,3.28
2023-02-27T14:11:41.779Z,3.19
2023-02-27T14:14:36.075Z,3.12
2023-02-27T14:17:05.985Z,3.09
2023-02-27T14:19:47.505Z,3.05
2023-02-27T14:22:14.169Z,3.01
2023-02-27T14:25:00.982Z,2.96
2023-02-27T14:27:31.746Z,2.89
2023-02-27T14:30:01.714Z,2.83
2023-02-27T14:32:33.760Z,2.76
2023-02-27T14:35:00.694Z,2.69
2023-02-27T14:37:27.258Z,2.64
2023-02-27T14:39:54.533Z,2.62
2023-02-27T14:42:33.711Z,2.59
2023-02-27T14:45:00.815Z,2.57
2023-02-27T14:47:32.014Z,2.58
2023-02-27T14:49:58.788Z,2.57
2023-02-27T14:52:27.757Z,2.53
2023-02-27T14:55:18.225Z,2.52
2023-02-27T14:57:57.531Z,2.48
2023-02-27T15:00:50.017Z,2.46
2023-02-27T15:03:20.464Z,2.45
2023-02-27T15:05:48.722Z,2.44
2023-02-27T15:08:27.853Z,2.44
2023-02-27T15:10:55.238Z,2.46
2023-02-27T15:13:31.909Z,2.50
2023-02-27T15:16:25.459Z,2.52
2023-02-27T15:18:54.172Z,2.55
2023-02-27T15:21:22.615Z,2.58
2023-02-27T15:24:01.228Z,2.60
2023-02-27T15:26:37.203Z,2.58
2023-02-27T15:29:05.072Z,2.58
2023-02-27T15:31:32.209Z,2.58
2023-02-27T15:34:00.221Z,2.57
2023-02-27T15:36:34.511Z,2.56
2023-02-27T15:39:07.800Z,2.55
2023-02-27T15:41:35.697Z,2.53
2023-02-27T15:44:03.075Z,2.52
2023-02-27T15:46:32.491Z,2.51
2023-02-27T15:48:59.209Z,2.49
2023-02-27T15:51:26.456Z,2.50
2023-02-27T15:53:54.506Z,2.51
2023-02-27T15:56:26.102Z,2.51
2023-02-27T15:58:58.334Z,2.52
2023-02-27T16:01:34.579Z,2.52
2023-02-27T16:04:04.621Z,2.51
2023-02-27T16:06:37.713Z,2.52
2023-02-27T16:09:06.637Z,2.51
2023-02-27T16:11:38.156Z,2.49
2023-02-27T16:14:05.582Z,2.46
2023-02-27T16:16:36.949Z,2.43
2023-02-27T16:19:20.371Z,2.41
2023-02-27T16:22:17.009Z,2.39
2023-02-27T16:24:44.152Z,2.39
2023-02-27T16:27:29.360Z,2.40
2023-02-27T16:30:01.986Z,2.40
2023-02-27T16:32:40.978Z,2.39
2023-02-27T16:35:16.193Z,2.37
2023-02-27T16:37:44.562Z,2.37
2023-02-27T16:40:12.711Z,2.33
2023-02-27T16:42:40.190Z,2.29
2023-02-27T16:45:10.568Z,2.27
2023-02-27T16:47:37.500Z,2.24
2023-02-27T16:50:13.624Z,2.23
2023-02-27T16:52:42.484Z,2.23
2023-02-27T16:55:11.414Z,2.24
2023-02-27T16:57:39.884Z,2.26
2023-02-27T17:07:42.844Z,2.25
2023-02-27T17:10:16.638Z,2.19
2023-02-27T17:12:48.199Z,2.17
2023-02-27T17:15:16.676Z,2.16
2023-02-27T17:17:45.022Z,2.14
2023-02-27T17:20:13.877Z,2.12
2023-02-27T17:22:46.310Z,2.09
2023-02-27T17:25:14.439Z,2.06
2023-02-27T17:27:43.640Z,2.03
2023-02-27T17:30:12.360Z,2.00
2023-02-27T17:32:40.395Z,1.98
2023-02-27T17:35:09.068Z,1.95
2023-02-27T17:37:38.499Z,1.94
2023-02-27T17:40:08.318Z,1.92
2023-02-27T17:42:37.303Z,1.90
2023-02-27T17:45:06.569Z,1.90
2023-02-27T17:47:35.564Z,1.88
2023-02-27T17:50:05.364Z,1.87
2023-02-27T17:52:37.183Z,1.86
2023-02-27T17:55:06.311Z,1.84
2023-02-27T17:57:36.069Z,1.83
2023-02-27T18:00:06.403Z,1.82
2023-02-27T18:02:37.421Z,1.82
2023-02-27T18:05:06.706Z,1.80
2023-02-27T18:07:35.011Z,1.81
2023-02-27T18:10:05.695Z,1.81
2023-02-27T18:12:34.439Z,1.81
2023-02-27T18:15:07.224Z,1.78
2023-02-27T18:17:36.724Z,1.74
2023-02-27T18:20:05.586Z,1.73
2023-02-27T18:22:34.389Z,1.75
2023-02-27T18:25:02.960Z,1.73
2023-02-27T18:27:32.960Z,1.72
2023-02-27T18:30:02.939Z,1.72
2023-02-27T18:32:34.088Z,1.72
2023-02-27T18:35:02.288Z,1.73
2023-02-27T18:37:30.979Z,1.74
2023-02-27T18:39:59.113Z,1.75
2023-02-27T18:42:31.533Z,1.75
2023-02-27T18:45:00.053Z,1.75
2023-02-27T18:47:30.282Z,1.75
2023-02-27T18:49:58.808Z,1.73
2023-02-27T18:52:28.992Z,1.73
2023-02-27T18:54:57.537Z,1.72
2023-02-27T18:57:31.549Z,1.73
2023-02-27T18:59:59.865Z,1.71
2023-02-27T19:02:28.465Z,1.68
2023-02-27T19:04:56.769Z,1.67
2023-02-27T19:07:25.670Z,1.64
2023-02-27T19:09:57.216Z,1.64
2023-02-27T19:12:25.529Z,1.63
2023-02-27T19:14:57.263Z,1.62
2023-02-27T19:17:25.943Z,1.61
2023-02-27T19:19:54.315Z,1.58
2023-02-27T19:22:22.802Z,1.58
2023-02-27T19:24:51.022Z,1.61
2023-02-27T19:27:19.001Z,1.61
2023-02-27T19:29:46.996Z,1.62
2023-02-27T19:32:15.537Z,1.62
2023-02-27T19:34:43.514Z,1.63
2023-02-27T19:37:11.889Z,1.64
2023-02-27T19:39:40.145Z,1.64
2023-02-27T19:42:08.136Z,1.63
2023-02-27T19:44:36.193Z,1.63
2023-02-27T19:47:04.540Z,1.63
2023-02-27T19:49:32.977Z,1.63
2023-02-27T19:52:01.071Z,1.62
2023-02-27T19:54:30.090Z,1.61
2023-02-27T19:56:58.316Z,1.60
2023-02-27T19:59:27.324Z,1.57
2023-02-27T20:01:55.476Z,1.54
2023-02-27T20:04:23.746Z,1.54
2023-02-27T20:06:53.812Z,1.54
2023-02-27T20:09:23.337Z,1.54
2023-02-27T20:11:54.004Z,1.53
2023-02-27T20:14:25.135Z,1.53
2023-02-27T20:16:54.280Z,1.53
2023-02-27T20:19:22.819Z,1.52
2023-02-27T20:21:52.395Z,1.54
2023-02-27T20:24:22.270Z,1.55
2023-02-27T20:26:59.108Z,1.53
2023-02-27T20:29:27.959Z,1.51
2023-02-27T20:31:57.394Z,1.49
2023-02-27T20:34:26.800Z,1.47
2023-02-27T20:36:55.491Z,1.46
2023-02-27T20:39:23.893Z,1.43
2023-02-27T20:41:52.251Z,1.44
2023-02-27T20:44:20.855Z,1.45
2023-02-27T20:46:49.557Z,1.46
2023-02-27T20:49:19.534Z,1.45
2023-02-27T20:51:48.318Z,1.46
2023-02-27T20:54:20.632Z,1.44
2023-02-27T20:56:54.753Z,1.43
2023-02-27T20:59:24.854Z,1.42
2023-02-27T21:01:53.387Z,1.39
2023-02-27T21:04:45.985Z,1.38
2023-02-27T21:07:17.122Z,1.38
2023-02-27T21:09:45.874Z,1.38
2023-02-27T21:12:14.124Z,1.38
2023-02-27T21:14:45.441Z,1.37
2023-02-27T21:17:13.925Z,1.36
2023-02-27T21:19:44.436Z,1.37
2023-02-27T21:22:14.381Z,1.36
2023-02-27T21:24:42.668Z,1.34
2023-02-27T21:27:10.739Z,1.33
2023-02-27T21:29:39.226Z,1.31
2023-02-27T21:32:07.809Z,1.30
2023-02-27T21:34:36.129Z,1.30
2023-02-27T21:37:06.555Z,1.29
2023-02-27T21:39:50.518Z,1.29
2023-02-27T21:42:18.780Z,1.28
2023-02-27T21:44:47.159Z,1.27
2023-02-27T21:47:17.186Z,1.29
2023-02-27T21:49:45.346Z,1.30
2023-02-27T21:52:13.424Z,1.28
2023-02-27T21:54:41.726Z,1.28
2023-02-27T21:57:10.118Z,1.27
2023-02-27T21:59:38.990Z,1.25
2023-02-27T22:02:07.332Z,1.22
2023-02-27T22:04:36.000Z,1.21
2023-02-27T22:07:04.144Z,1.21
2023-02-27T22:09:32.725Z,1.19
2023-02-27T22:12:02.432Z,1.18
2023-02-27T22:14:30.756Z,1.17
2023-02-27T22:16:59.317Z,1.15
2023-02-27T22:19:27.558Z,1.16
2023-02-27T22:21:55.675Z,1.17
2023-02-27T22:24:23.992Z,1.17
2023-02-27T22:26:52.262Z,1.17
2023-02-27T22:29:20.499Z,1.16
2023-02-27T22:31:48.836Z,1.15
2023-02-27T22:34:18.779Z,1.17
2023-02-27T22:36:48.698Z,1.15
2023-02-27T22:39:18.143Z,1.15
2023-02-27T22:41:46.299Z,1.13
2023-02-27T22:44:15.010Z,1.11
2023-02-27T22:46:45.251Z,1.09
2023-02-27T22:49:20.832Z,1.09
2023-02-27T22:51:51.188Z,1.09
2023-02-27T22:54:21.338Z,1.10
2023-02-27T22:56:51.003Z,1.07
2023-02-27T22:59:28.261Z,1.03
2023-02-27T23:01:56.506Z,1.00
2023-02-27T23:04:24.472Z,0.97
2023-02-27T23:06:56.717Z,0.95
2023-02-27T23:09:26.134Z,0.91
2023-02-27T23:11:55.132Z,0.89
2023-02-27T23:14:23.927Z,0.86
2023-02-27T23:16:51.982Z,0.84
2023-02-27T23:19:21.424Z,0.86
2023-02-27T23:21:54.781Z,0.86
2023-02-27T23:24:22.971Z,0.85
2023-02-27T23:26:52.114Z,0.85
2023-02-27T23:29:20.285Z,0.86
2023-02-27T23:31:49.185Z,0.86
2023-02-27T23:34:18.286Z,0.84
2023-02-27T23:36:46.580Z,0.84
2023-02-27T23:39:15.011Z,0.85
2023-02-27T23:41:43.565Z,0.85
2023-02-27T23:44:11.610Z,0.82
2023-02-27T23:46:40.766Z,0.81
2023-02-27T23:49:08.958Z,0.80
2023-02-27T23:51:37.302Z,0.79
2023-02-27T23:54:05.630Z,0.78
2023-02-27T23:56:34.994Z,0.75
2023-02-27T23:59:04.943Z,0.75
